createdAt,value
2022-12-08T00:01:35.628Z,7.56
2022-12-08T00:04:05.251Z,7.53
2022-12-08T00:06:52.508Z,7.56
2022-12-08T00:09:23.038Z,7.44
2022-12-08T00:11:56.819Z,7.52
2022-12-08T00:14:28.638Z,7.46
2022-12-08T00:16:57.669Z,7.45
2022-12-08T00:19:26.124Z,7.47
2022-12-08T00:21:54.828Z,7.50
2022-12-08T00:24:23.955Z,7.44
2022-12-08T00:26:51.984Z,7.53
2022-12-08T00:29:20.715Z,7.58
2022-12-08T00:31:50.182Z,7.48
2022-12-08T00:34:18.371Z,7.52
2022-12-08T00:36:46.421Z,7.47
2022-12-08T00:39:15.759Z,7.34
2022-12-08T00:41:57.760Z,7.44
2022-12-08T00:44:26.343Z,7.45
2022-12-08T00:46:55.755Z,7.47
2022-12-08T00:49:23.960Z,7.47
2022-12-08T00:51:52.021Z,7.44
2022-12-08T00:54:20.536Z,7.42
2022-12-08T00:56:49.185Z,7.42
2022-12-08T00:59:17.339Z,7.42
2022-12-08T01:01:46.280Z,7.33
2022-12-08T01:04:17.764Z,7.33
2022-12-08T01:06:46.325Z,7.37
2022-12-08T01:09:16.663Z,7.35
2022-12-08T01:11:45.573Z,7.42
2022-12-08T01:14:14.090Z,7.40
2022-12-08T01:16:42.510Z,7.42
2022-12-08T01:19:12.214Z,7.42
2022-12-08T01:21:42.703Z,7.44
2022-12-08T01:24:13.134Z,7.39
2022-12-08T01:26:41.208Z,7.42
2022-12-08T01:29:09.852Z,7.35
2022-12-08T01:31:37.851Z,7.44
2022-12-08T01:34:06.335Z,7.30
2022-12-08T01:36:37.144Z,7.31
2022-12-08T01:39:09.565Z,7.32
2022-12-08T01:41:40.310Z,7.33
2022-12-08T01:44:41.676Z,7.27
2022-12-08T01:47:10.364Z,7.24
2022-12-08T01:49:38.661Z,7.35
2022-12-08T01:52:12.166Z,7.47
2022-12-08T01:54:48.313Z,7.56
2022-12-08T01:57:19.848Z,7.58
2022-12-08T02:00:02.245Z,7.58
2022-12-08T02:02:41.114Z,7.64
2022-12-08T02:05:10.693Z,7.64
2022-12-08T02:07:39.166Z,7.57
2022-12-08T02:10:09.905Z,7.48
2022-12-08T02:12:37.953Z,7.33
2022-12-08T02:15:07.172Z,7.12
2022-12-08T02:17:50.320Z,6.98
2022-12-08T02:20:45.763Z,6.82
2022-12-08T02:23:23.603Z,6.80
2022-12-08T02:26:17.361Z,6.79
2022-12-08T02:29:10.493Z,6.72
2022-12-08T02:31:50.457Z,6.79
2022-12-08T02:34:28.753Z,6.73
2022-12-08T02:37:04.975Z,6.80
2022-12-08T02:39:39.499Z,6.87
2022-12-08T02:42:13.576Z,6.89
2022-12-08T02:44:44.645Z,6.97
2022-12-08T02:47:17.127Z,7.02
2022-12-08T02:49:47.101Z,7.08
2022-12-08T02:52:40.819Z,7.12
2022-12-08T02:55:14.394Z,7.17
2022-12-08T02:57:53.430Z,7.23
2022-12-08T03:00:23.220Z,7.24
2022-12-08T03:03:06.727Z,7.28
2022-12-08T03:05:58.943Z,7.35
2022-12-08T03:08:34.401Z,7.43
2022-12-08T03:11:07.765Z,7.46
2022-12-08T03:13:41.386Z,7.45
2022-12-08T03:16:13.062Z,7.48
2022-12-08T03:18:45.388Z,7.54
2022-12-08T03:21:17.021Z,7.56
2022-12-08T03:23:47.144Z,7.54
2022-12-08T03:26:26.220Z,7.55
2022-12-08T03:28:54.477Z,7.47
2022-12-08T03:31:26.090Z,7.50
2022-12-08T03:33:57.833Z,7.48
2022-12-08T03:36:27.354Z,7.44
2022-12-08T03:38:55.668Z,7.40
2022-12-08T03:41:24.188Z,7.43
2022-12-08T03:43:55.411Z,7.43
2022-12-08T03:48:53.904Z,7.55
2022-12-08T03:51:22.446Z,7.38
2022-12-08T03:53:52.208Z,7.39
2022-12-08T03:56:24.800Z,7.23
2022-12-08T03:58:53.178Z,7.02
2022-12-08T04:01:21.630Z,6.88
2022-12-08T04:03:50.119Z,6.76
2022-12-08T04:06:18.900Z,6.65
2022-12-08T04:08:47.253Z,6.58
2022-12-08T04:11:16.784Z,6.59
2022-12-08T04:13:45.061Z,6.56
2022-12-08T04:16:17.344Z,6.58
2022-12-08T04:18:45.921Z,6.65
2022-12-08T04:21:14.005Z,6.63
2022-12-08T04:23:42.374Z,6.67
2022-12-08T04:26:10.835Z,6.69
2022-12-08T04:28:40.312Z,6.68
2022-12-08T04:31:08.676Z,6.66
2022-12-08T04:33:36.900Z,6.68
2022-12-08T04:36:06.224Z,6.66
2022-12-08T04:38:34.673Z,6.61
2022-12-08T04:41:03.011Z,6.65
2022-12-08T04:43:31.252Z,6.64
2022-12-08T04:46:00.664Z,6.70
2022-12-08T04:48:28.776Z,6.61
2022-12-08T04:50:56.816Z,6.71
2022-12-08T04:53:26.701Z,6.73
2022-12-08T04:55:54.742Z,6.81
2022-12-08T04:58:23.083Z,6.90
2022-12-08T05:00:51.499Z,6.91
2022-12-08T05:03:28.108Z,6.90
2022-12-08T05:05:56.698Z,6.88
2022-12-08T05:08:24.730Z,6.88
2022-12-08T05:10:52.863Z,6.83
2022-12-08T05:13:20.968Z,6.84
2022-12-08T05:15:49.087Z,6.80
2022-12-08T05:18:17.246Z,6.74
2022-12-08T05:20:46.695Z,6.70
2022-12-08T05:23:14.773Z,6.72
2022-12-08T05:25:42.862Z,6.74
2022-12-08T05:28:39.569Z,6.80
2022-12-08T05:30:59.110Z,6.80
2022-12-08T05:33:27.232Z,6.69
2022-12-08T05:35:56.684Z,6.63
2022-12-08T05:38:24.745Z,6.64
2022-12-08T05:40:52.790Z,6.58
2022-12-08T05:43:20.814Z,6.59
2022-12-08T05:45:49.003Z,6.42
2022-12-08T05:48:17.175Z,6.46
2022-12-08T05:50:47.977Z,6.51
2022-12-08T05:53:18.362Z,6.55
2022-12-08T05:55:46.823Z,6.50
2022-12-08T05:58:16.776Z,6.42
2022-12-08T06:00:45.809Z,6.50
2022-12-08T06:03:14.261Z,6.48
2022-12-08T06:05:43.376Z,6.50
2022-12-08T06:08:11.738Z,6.52
2022-12-08T06:10:42.125Z,6.50
2022-12-08T06:13:10.565Z,6.60
2022-12-08T06:15:39.594Z,6.61
2022-12-08T06:18:08.077Z,6.63
2022-12-08T06:20:36.191Z,6.60
2022-12-08T06:23:04.375Z,6.60
2022-12-08T06:25:32.445Z,6.63
2022-12-08T06:28:01.964Z,6.66
2022-12-08T06:30:29.997Z,6.63
2022-12-08T06:32:58.030Z,6.52
2022-12-08T06:35:26.105Z,6.63
2022-12-08T06:37:54.158Z,6.58
2022-12-08T06:40:22.208Z,6.58
2022-12-08T06:42:50.222Z,6.60
2022-12-08T06:45:19.858Z,6.63
2022-12-08T06:47:47.921Z,6.65
2022-12-08T06:50:16.093Z,6.67
2022-12-08T06:52:56.905Z,6.69
2022-12-08T06:58:17.705Z,6.65
2022-12-08T07:00:47.283Z,6.72
2022-12-08T07:03:15.393Z,6.71
2022-12-08T07:05:43.429Z,6.80
2022-12-08T07:08:11.560Z,6.86
2022-12-08T07:10:39.759Z,6.86
2022-12-08T07:13:07.781Z,6.83
2022-12-08T07:15:35.792Z,6.79
2022-12-08T07:18:05.201Z,6.76
2022-12-08T07:20:33.262Z,6.75
2022-12-08T07:23:01.275Z,6.65
2022-12-08T07:25:29.327Z,6.60
2022-12-08T07:27:57.392Z,6.52
2022-12-08T07:30:25.540Z,6.46
2022-12-08T07:32:53.597Z,6.42
2022-12-08T07:35:23.209Z,6.42
2022-12-08T07:37:51.370Z,6.37
2022-12-08T07:40:19.701Z,6.36
2022-12-08T07:42:47.661Z,6.26
2022-12-08T07:45:15.809Z,6.25
2022-12-08T07:47:43.875Z,6.25
2022-12-08T07:50:12.175Z,6.27
2022-12-08T07:52:41.598Z,6.26
2022-12-08T07:55:10.686Z,6.22
2022-12-08T07:57:38.745Z,6.19
2022-12-08T08:00:08.337Z,6.17
2022-12-08T08:02:45.409Z,6.19
2022-12-08T08:05:13.974Z,6.20
2022-12-08T08:07:44.561Z,6.10
2022-12-08T08:10:13.119Z,6.08
2022-12-08T08:12:41.424Z,6.08
2022-12-08T08:15:10.561Z,6.04
2022-12-08T08:17:39.259Z,6.07
2022-12-08T08:20:09.357Z,6.10
2022-12-08T08:22:38.656Z,6.06
2022-12-08T08:25:08.954Z,6.02
2022-12-08T08:27:37.061Z,5.98
2022-12-08T08:30:05.867Z,6.10
2022-12-08T08:32:34.922Z,6.07
2022-12-08T08:35:03.339Z,6.09
2022-12-08T08:37:31.498Z,6.13
2022-12-08T08:39:59.569Z,6.10
2022-12-08T08:42:29.200Z,6.14
2022-12-08T08:44:58.320Z,6.14
2022-12-08T08:47:26.330Z,6.17
2022-12-08T08:49:54.386Z,6.16
2022-12-08T08:52:26.514Z,6.19
2022-12-08T08:54:54.616Z,6.23
2022-12-08T08:57:25.772Z,6.26
2022-12-08T08:59:57.220Z,6.30
2022-12-08T09:02:25.559Z,6.31
2022-12-08T09:04:53.916Z,6.28
2022-12-08T09:07:22.030Z,6.27
2022-12-08T09:09:50.825Z,6.35
2022-12-08T09:12:19.235Z,6.46
2022-12-08T09:14:47.266Z,6.51
2022-12-08T09:17:17.779Z,6.49
2022-12-08T09:19:46.015Z,6.45
2022-12-08T09:22:16.547Z,6.27
2022-12-08T09:24:44.662Z,6.49
2022-12-08T09:27:12.745Z,6.60
2022-12-08T09:29:40.872Z,6.66
2022-12-08T09:32:08.892Z,6.65
2022-12-08T09:34:38.260Z,6.79
2022-12-08T09:37:06.307Z,6.76
2022-12-08T09:39:34.305Z,6.83
2022-12-08T09:42:03.683Z,7.07
2022-12-08T09:44:49.742Z,7.19
2022-12-08T09:47:22.517Z,7.32
2022-12-08T09:49:57.646Z,7.58
2022-12-08T09:52:30.698Z,8.46
2022-12-08T09:55:01.539Z,9.22
2022-12-08T09:57:30.866Z,10.21
2022-12-08T10:00:04.010Z,10.89
2022-12-08T10:02:33.607Z,11.62
2022-12-08T10:05:03.346Z,12.17
2022-12-08T10:07:42.963Z,12.59
2022-12-08T10:10:23.005Z,13.09
2022-12-08T10:12:59.551Z,13.44
2022-12-08T10:15:42.241Z,13.33
2022-12-08T10:18:16.375Z,13.46
2022-12-08T10:20:48.768Z,13.47
2022-12-08T10:23:26.818Z,13.41
2022-12-08T10:26:01.640Z,13.91
2022-12-08T10:28:29.772Z,14.27
2022-12-08T10:30:57.899Z,14.68
2022-12-08T10:33:26.146Z,14.88
2022-12-08T10:35:58.437Z,14.94
2022-12-08T10:38:30.736Z,14.23
2022-12-08T10:41:04.417Z,13.68
2022-12-08T10:43:33.934Z,13.44
2022-12-08T10:46:14.080Z,12.84
2022-12-08T10:48:51.546Z,12.20
2022-12-08T10:51:28.136Z,11.67
2022-12-08T10:53:56.503Z,11.20
2022-12-08T10:56:28.559Z,10.73
2022-12-08T10:59:14.424Z,10.37
2022-12-08T11:01:44.068Z,10.19
2022-12-08T11:04:16.648Z,9.94
2022-12-08T11:06:46.869Z,9.84
2022-12-08T11:09:41.195Z,9.63
2022-12-08T11:12:13.811Z,9.71
2022-12-08T11:14:50.394Z,9.70
2022-12-08T11:17:25.513Z,10.04
2022-12-08T11:19:58.922Z,10.01
2022-12-08T11:22:32.718Z,9.98
2022-12-08T11:25:04.013Z,9.98
2022-12-08T11:27:35.032Z,10.36
2022-12-08T11:30:07.212Z,10.92
2022-12-08T11:32:40.509Z,11.77
2022-12-08T11:35:11.328Z,12.28
2022-12-08T11:37:42.419Z,13.00
2022-12-08T11:40:17.553Z,13.45
2022-12-08T11:42:55.304Z,13.91
2022-12-08T11:45:27.811Z,14.43
2022-12-08T11:48:05.025Z,14.56
2022-12-08T11:50:41.193Z,14.88
2022-12-08T11:53:18.087Z,14.97
2022-12-08T11:55:51.531Z,15.42
2022-12-08T11:58:22.919Z,15.62
2022-12-08T12:00:51.395Z,15.29
2022-12-08T12:03:29.725Z,15.15
2022-12-08T12:09:17.586Z,15.13
2022-12-08T12:12:16.722Z,14.64
2022-12-08T12:15:23.264Z,13.85
2022-12-08T12:17:55.166Z,13.29
2022-12-08T12:20:28.612Z,13.07
2022-12-08T12:23:03.605Z,13.45
2022-12-08T12:25:34.641Z,13.82
2022-12-08T12:28:06.797Z,14.35
2022-12-08T12:30:53.555Z,14.52
2022-12-08T12:33:22.263Z,14.09
2022-12-08T12:35:50.775Z,13.73
2022-12-08T12:38:41.620Z,13.48
2022-12-08T12:41:14.354Z,13.49
2022-12-08T12:44:11.385Z,14.15
2022-12-08T12:46:54.465Z,14.62
2022-12-08T12:50:08.497Z,14.80
2022-12-08T12:52:44.213Z,15.29
2022-12-08T12:55:30.792Z,15.44
2022-12-08T12:58:00.351Z,15.52
2022-12-08T13:00:29.853Z,15.68
2022-12-08T13:02:59.371Z,15.86
2022-12-08T13:05:30.027Z,16.00
2022-12-08T13:08:01.171Z,15.90
2022-12-08T13:10:31.967Z,16.00
2022-12-08T13:13:06.632Z,15.93
2022-12-08T13:15:38.945Z,15.68
2022-12-08T13:18:08.343Z,15.49
2022-12-08T13:20:46.656Z,15.36
2022-12-08T13:23:28.247Z,15.59
2022-12-08T13:26:18.425Z,15.66
2022-12-08T13:29:15.062Z,15.39
2022-12-08T13:31:50.622Z,15.37
2022-12-08T13:34:22.958Z,15.49
2022-12-08T13:36:58.287Z,15.51
2022-12-08T13:39:30.573Z,15.38
2022-12-08T13:42:03.554Z,15.24
2022-12-08T13:45:18.740Z,15.33
2022-12-08T13:47:34.734Z,15.43
2022-12-08T13:58:40.035Z,14.95
2022-12-08T14:01:14.874Z,14.49
2022-12-08T14:04:20.457Z,13.78
2022-12-08T14:06:42.926Z,13.10
2022-12-08T14:09:16.005Z,12.65
2022-12-08T14:11:47.905Z,12.22
2022-12-08T14:14:32.806Z,12.04
2022-12-08T14:17:11.089Z,11.92
2022-12-08T14:19:41.098Z,11.63
2022-12-08T14:22:13.702Z,11.41
2022-12-08T14:24:46.062Z,11.13
2022-12-08T14:27:18.449Z,10.95
2022-12-08T14:29:48.535Z,10.74
2022-12-08T14:32:39.990Z,10.53
2022-12-08T14:35:21.085Z,10.30
2022-12-08T14:37:50.993Z,10.19
2022-12-08T14:40:23.874Z,9.96
2022-12-08T14:42:55.370Z,9.79
2022-12-08T14:45:23.435Z,9.70
2022-12-08T14:47:52.310Z,9.57
2022-12-08T14:50:42.896Z,9.40
2022-12-08T14:53:16.205Z,9.29
2022-12-08T14:55:46.289Z,9.18
2022-12-08T14:58:20.201Z,9.05
2022-12-08T15:00:51.494Z,8.90
2022-12-08T15:03:22.740Z,8.76
2022-12-08T15:05:54.206Z,8.72
2022-12-08T15:08:22.373Z,8.67
2022-12-08T15:11:18.877Z,8.57
2022-12-08T15:13:48.409Z,8.44
2022-12-08T15:16:26.525Z,8.27
2022-12-08T15:19:05.323Z,8.20
2022-12-08T15:21:39.205Z,8.15
2022-12-08T15:24:07.699Z,8.12
2022-12-08T15:26:40.615Z,8.02
2022-12-08T15:29:13.309Z,7.92
2022-12-08T15:31:41.452Z,7.81
2022-12-08T15:34:09.634Z,7.69
2022-12-08T15:36:40.048Z,7.57
2022-12-08T15:39:20.441Z,7.43
2022-12-08T15:41:48.453Z,7.31
2022-12-08T15:44:16.508Z,7.20
2022-12-08T15:46:44.615Z,7.09
2022-12-08T15:49:17.813Z,6.98
2022-12-08T15:51:47.981Z,6.87
2022-12-08T15:54:16.488Z,6.82
2022-12-08T15:57:10.840Z,6.79
2022-12-08T15:59:35.722Z,6.69
2022-12-08T16:02:03.902Z,6.63
2022-12-08T16:07:25.291Z,6.56
2022-12-08T16:09:53.895Z,6.53
2022-12-08T16:13:40.324Z,6.50
2022-12-08T16:18:24.755Z,6.33
2022-12-08T16:21:22.681Z,6.28
2022-12-08T16:23:45.655Z,6.20
2022-12-08T16:26:26.113Z,6.15
2022-12-08T16:29:05.143Z,6.09
2022-12-08T16:31:33.668Z,6.07
2022-12-08T16:34:01.868Z,6.02
2022-12-08T16:36:30.076Z,6.01
2022-12-08T16:38:59.482Z,5.98
2022-12-08T16:41:44.638Z,5.94
2022-12-08T16:44:12.789Z,5.93
2022-12-08T16:46:40.914Z,5.94
2022-12-08T16:49:10.256Z,5.91
2022-12-08T16:51:38.764Z,5.89
2022-12-08T16:54:08.148Z,5.86
2022-12-08T16:56:36.226Z,5.84
2022-12-08T16:59:04.414Z,5.79
2022-12-08T17:01:32.640Z,5.80
2022-12-08T17:04:30.050Z,5.79
2022-12-08T17:06:50.904Z,5.79
2022-12-08T17:09:20.551Z,5.81
2022-12-08T17:11:48.557Z,5.83
2022-12-08T17:14:17.482Z,5.83
2022-12-08T17:16:46.481Z,5.83
2022-12-08T17:19:15.987Z,5.83
2022-12-08T17:21:44.536Z,5.82
2022-12-08T17:24:15.865Z,5.78
2022-12-08T17:26:48.340Z,5.72
2022-12-08T17:29:18.669Z,5.67
2022-12-08T17:31:47.110Z,5.59
2022-12-08T17:34:15.298Z,5.51
2022-12-08T17:36:43.415Z,5.46
2022-12-08T17:39:18.257Z,5.42
2022-12-08T17:41:48.621Z,5.37
2022-12-08T17:44:18.849Z,5.33
2022-12-08T17:46:52.526Z,5.27
2022-12-08T17:49:23.472Z,5.21
2022-12-08T17:51:52.892Z,5.16
2022-12-08T17:54:21.256Z,5.07
2022-12-08T17:56:50.654Z,5.04
2022-12-08T17:59:19.070Z,5.02
2022-12-08T18:01:47.491Z,5.00
2022-12-08T18:04:15.631Z,4.94
2022-12-08T18:06:43.757Z,4.92
2022-12-08T18:09:12.074Z,4.92
2022-12-08T18:11:40.312Z,4.89
2022-12-08T18:14:10.707Z,4.88
2022-12-08T18:16:40.715Z,4.84
2022-12-08T18:19:09.910Z,4.79
2022-12-08T18:21:38.097Z,4.72
2022-12-08T18:24:07.049Z,4.69
2022-12-08T18:26:35.233Z,4.68
2022-12-08T18:29:03.414Z,4.65
2022-12-08T18:31:32.859Z,4.66
2022-12-08T18:34:00.945Z,4.68
2022-12-08T18:36:28.958Z,4.68
2022-12-08T18:38:57.094Z,4.65
2022-12-08T18:41:26.817Z,4.63
2022-12-08T18:43:55.650Z,4.62
2022-12-08T18:46:24.456Z,4.61
2022-12-08T18:48:54.335Z,4.57
2022-12-08T18:51:24.864Z,4.53
2022-12-08T18:53:53.634Z,4.52
2022-12-08T18:56:24.224Z,4.49
2022-12-08T18:58:57.290Z,4.49
2022-12-08T19:01:28.568Z,4.49
2022-12-08T19:04:26.878Z,4.46
2022-12-08T19:06:47.207Z,4.45
2022-12-08T19:09:15.884Z,4.46
2022-12-08T19:11:44.383Z,4.45
2022-12-08T19:14:13.932Z,4.45
2022-12-08T19:16:42.012Z,4.44
2022-12-08T19:19:11.529Z,4.46
2022-12-08T19:21:44.719Z,4.48
2022-12-08T19:24:14.336Z,4.48
2022-12-08T19:26:42.784Z,4.50
2022-12-08T19:29:11.206Z,4.53
2022-12-08T19:31:39.505Z,4.53
2022-12-08T19:34:09.188Z,4.56
2022-12-08T19:36:42.717Z,4.56
2022-12-08T19:39:33.549Z,4.57
2022-12-08T19:42:18.880Z,4.56
2022-12-08T19:44:56.048Z,4.59
2022-12-08T19:47:25.790Z,4.60
2022-12-08T19:49:54.855Z,4.61
2022-12-08T19:52:24.306Z,4.66
2022-12-08T19:54:52.362Z,4.61
2022-12-08T19:57:20.483Z,4.59
2022-12-08T19:59:54.611Z,4.57
2022-12-08T20:02:24.527Z,4.53
2022-12-08T20:04:52.819Z,4.51
2022-12-08T20:07:20.880Z,4.48
2022-12-08T20:09:50.333Z,4.44
2022-12-08T20:12:18.346Z,4.44
2022-12-08T20:14:46.580Z,4.41
2022-12-08T20:17:14.784Z,4.38
2022-12-08T20:19:42.880Z,4.38
2022-12-08T20:22:10.993Z,4.35
2022-12-08T20:24:39.202Z,4.32
2022-12-08T20:27:08.809Z,4.28
2022-12-08T20:29:37.130Z,4.26
2022-12-08T20:32:05.379Z,4.23
2022-12-08T20:34:34.571Z,4.23
2022-12-08T20:37:02.636Z,4.26
2022-12-08T20:39:30.824Z,4.30
2022-12-08T20:42:00.134Z,4.32
2022-12-08T20:44:30.279Z,4.37
2022-12-08T20:46:58.451Z,4.42
2022-12-08T20:49:32.774Z,4.49
2022-12-08T20:52:02.587Z,4.54
2022-12-08T20:54:30.845Z,4.57
2022-12-08T20:56:59.050Z,4.61
2022-12-08T20:59:27.474Z,4.62
2022-12-08T21:01:57.238Z,4.59
2022-12-08T21:04:25.856Z,4.58
2022-12-08T21:06:53.995Z,4.56
2022-12-08T21:09:22.428Z,4.59
2022-12-08T21:11:50.666Z,4.58
2022-12-08T21:14:18.910Z,4.59
2022-12-08T21:16:47.219Z,4.60
2022-12-08T21:19:18.252Z,4.60
2022-12-08T21:21:47.036Z,4.57
2022-12-08T21:24:15.795Z,4.57
2022-12-08T21:26:44.538Z,4.53
2022-12-08T21:29:13.393Z,4.56
2022-12-08T21:31:41.950Z,4.56
2022-12-08T21:34:12.178Z,4.59
2022-12-08T21:36:42.108Z,4.58
2022-12-08T21:39:12.836Z,4.53
2022-12-08T21:41:58.352Z,4.46
2022-12-08T21:44:26.504Z,4.45
2022-12-08T21:46:55.134Z,4.41
2022-12-08T21:49:23.250Z,4.35
2022-12-08T21:51:52.837Z,4.31
2022-12-08T21:54:20.927Z,4.28
2022-12-08T21:56:50.419Z,4.24
2022-12-08T21:59:19.775Z,4.21
2022-12-08T22:01:48.479Z,4.18
2022-12-08T22:04:19.009Z,4.16
2022-12-08T22:06:47.164Z,4.10
2022-12-08T22:09:16.927Z,4.09
2022-12-08T22:11:45.281Z,4.07
2022-12-08T22:14:15.085Z,4.07
2022-12-08T22:16:44.068Z,4.06
2022-12-08T22:19:13.192Z,4.05
2022-12-08T22:21:41.543Z,4.03
2022-12-08T22:24:09.932Z,4.03
2022-12-08T22:26:39.348Z,4.02
2022-12-08T22:29:07.379Z,4.00
2022-12-08T22:31:35.492Z,3.99
2022-12-08T22:34:03.824Z,3.99
2022-12-08T22:36:31.891Z,4.05
2022-12-08T22:39:00.069Z,4.13
2022-12-08T22:41:28.457Z,4.29
2022-12-08T22:43:57.871Z,4.41
2022-12-08T22:46:27.495Z,4.50
2022-12-08T22:48:55.907Z,4.58
2022-12-08T22:51:23.930Z,4.64
2022-12-08T22:53:52.034Z,4.68
2022-12-08T22:56:20.751Z,4.81
2022-12-08T22:58:49.341Z,4.94
2022-12-08T23:01:27.237Z,5.05
2022-12-08T23:03:55.757Z,5.16
2022-12-08T23:06:24.035Z,5.23
2022-12-08T23:08:52.431Z,5.27
2022-12-08T23:11:22.077Z,5.38
2022-12-08T23:13:50.288Z,5.40
2022-12-08T23:16:18.580Z,5.39
2022-12-08T23:18:48.541Z,5.38
2022-12-08T23:21:19.568Z,5.39
2022-12-08T23:23:48.268Z,5.45
2022-12-08T23:26:19.009Z,5.45
2022-12-08T23:28:47.440Z,5.49
2022-12-08T23:31:16.475Z,5.41
2022-12-08T23:33:45.267Z,5.46
2022-12-08T23:36:16.063Z,5.47
2022-12-08T23:38:44.526Z,5.52
2022-12-08T23:41:14.285Z,5.57
2022-12-08T23:43:46.268Z,5.59
2022-12-08T23:46:15.207Z,5.56
2022-12-08T23:48:43.766Z,5.60
2022-12-08T23:51:12.276Z,5.65
2022-12-08T23:53:42.259Z,5.67
2022-12-08T23:56:12.781Z,5.69
2022-12-08T23:58:41.674Z,5.72
